createdAt,value
2023-05-08T00:00:30.191Z,62.79
2023-05-08T00:05:31.490Z,61.62
2023-05-08T00:10:32.738Z,61.26
2023-05-08T00:15:34.009Z,61.08
2023-05-08T00:20:35.250Z,60.95
2023-05-08T00:25:36.460Z,61.37
2023-05-08T00:30:37.740Z,60.18
2023-05-08T00:35:41.525Z,61.33
2023-05-08T00:40:43.465Z,61.41
2023-05-08T00:45:44.716Z,61.62
2023-05-08T00:50:46.035Z,63.54
2023-05-08T00:55:47.291Z,64.86
2023-05-08T01:00:48.533Z,64.71
2023-05-08T01:05:49.785Z,65.87
2023-05-08T01:10:51.029Z,66.69
2023-05-08T01:15:52.360Z,66.50
2023-05-08T01:20:53.741Z,66.64
2023-05-08T01:25:54.999Z,65.63
2023-05-08T01:30:56.248Z,65.18
2023-05-08T01:35:58.352Z,64.98
2023-05-08T01:40:59.600Z,66.63
2023-05-08T01:46:00.896Z,66.82
2023-05-08T01:51:02.478Z,66.88
2023-05-08T01:56:03.736Z,67.56
2023-05-08T02:01:05.082Z,69.20
2023-05-08T02:06:06.371Z,69.33
2023-05-08T02:11:07.650Z,69.63
2023-05-08T02:16:08.902Z,67.67
2023-05-08T02:21:10.440Z,68.38
2023-05-08T02:26:11.692Z,69.43
2023-05-08T02:31:13.003Z,69.08
2023-05-08T02:36:14.303Z,69.39
2023-05-08T02:41:15.625Z,68.71
2023-05-08T02:46:16.948Z,69.17
2023-05-08T02:51:18.240Z,70.67
2023-05-08T02:56:19.513Z,69.94
2023-05-08T03:01:20.879Z,70.05
2023-05-08T03:06:22.126Z,69.17
2023-05-08T03:11:23.384Z,69.72
2023-05-08T03:16:24.816Z,69.67
2023-05-08T03:21:26.782Z,69.64
2023-05-08T03:26:28.014Z,69.99
2023-05-08T03:31:29.325Z,70.84
2023-05-08T03:36:30.574Z,70.30
2023-05-08T03:41:31.830Z,70.04
2023-05-08T03:46:33.104Z,69.68
2023-05-08T03:51:34.399Z,70.17
2023-05-08T03:56:35.620Z,69.59
2023-05-08T04:01:36.867Z,69.67
2023-05-08T04:06:48.678Z,71.29
2023-05-08T04:11:51.056Z,71.51
2023-05-08T04:16:52.464Z,70.55
2023-05-08T04:21:55.727Z,69.01
2023-05-08T04:26:57.036Z,68.59
2023-05-08T04:31:58.365Z,68.67
2023-05-08T04:36:59.702Z,68.66
2023-05-08T04:42:03.636Z,69.70
2023-05-08T04:47:05.100Z,68.82
2023-05-08T04:52:09.430Z,68.69
2023-05-08T04:57:10.747Z,68.46
2023-05-08T05:02:12.026Z,68.04
2023-05-08T05:07:13.317Z,68.12
2023-05-08T05:12:14.719Z,68.22
2023-05-08T05:17:15.978Z,68.14
2023-05-08T05:22:17.248Z,67.51
2023-05-08T05:27:21.169Z,68.44
2023-05-08T05:32:22.770Z,67.41
2023-05-08T05:37:24.279Z,67.70
2023-05-08T05:42:25.859Z,67.23
2023-05-08T05:47:27.173Z,67.11
2023-05-08T05:52:28.468Z,66.58
2023-05-08T05:57:29.732Z,67.59
2023-05-08T06:02:31.081Z,65.58
2023-05-08T06:07:32.517Z,64.57
2023-05-08T06:12:34.035Z,65.55
2023-05-08T06:17:35.324Z,63.38
2023-05-08T06:22:39.219Z,64.08
2023-05-08T06:27:40.988Z,67.07
2023-05-08T06:32:42.359Z,64.96
2023-05-08T06:37:45.268Z,63.01
2023-05-08T06:42:47.199Z,61.93
2023-05-08T06:47:48.463Z,61.61
2023-05-08T06:52:49.737Z,61.39
2023-05-08T06:57:51.043Z,60.05
2023-05-08T07:02:52.334Z,61.82
2023-05-08T07:07:56.862Z,60.65
2023-05-08T07:12:58.329Z,62.18
2023-05-08T07:17:59.660Z,58.79
2023-05-08T07:23:00.923Z,61.63
2023-05-08T07:28:02.232Z,60.43
2023-05-08T07:33:04.053Z,58.78
2023-05-08T07:38:05.335Z,58.32
2023-05-08T07:43:06.581Z,58.01
2023-05-08T07:48:08.509Z,57.83
2023-05-08T07:53:09.878Z,58.35
2023-05-08T07:58:11.149Z,57.86
2023-05-08T08:03:12.502Z,58.48
2023-05-08T08:08:13.810Z,58.22
2023-05-08T08:13:15.144Z,59.47
2023-05-08T08:18:16.488Z,58.00
2023-05-08T08:23:17.776Z,56.40
2023-05-08T08:28:19.573Z,56.46
2023-05-08T08:33:20.961Z,55.72
2023-05-08T08:38:22.225Z,54.60
2023-05-08T08:43:23.510Z,56.54
2023-05-08T08:48:24.807Z,54.75
2023-05-08T08:53:26.175Z,55.28
2023-05-08T08:58:27.447Z,54.64
2023-05-08T09:03:28.817Z,55.23
2023-05-08T09:08:30.302Z,53.14
2023-05-08T09:13:31.680Z,53.02
2023-05-08T09:18:33.170Z,55.34
2023-05-08T09:23:34.454Z,56.99
2023-05-08T09:28:35.688Z,51.61
2023-05-08T09:33:36.880Z,51.67
2023-05-08T09:38:38.390Z,53.11
2023-05-08T09:43:39.681Z,53.05
2023-05-08T09:48:40.950Z,52.37
2023-05-08T09:53:42.220Z,52.79
2023-05-08T09:58:43.481Z,51.40
2023-05-08T10:03:44.755Z,51.37
2023-05-08T10:08:46.280Z,49.14
2023-05-08T10:13:47.573Z,48.85
2023-05-08T10:18:49.378Z,50.33
2023-05-08T10:23:50.674Z,48.93
2023-05-08T10:28:52.005Z,48.28
2023-05-08T10:33:53.286Z,47.60
2023-05-08T10:38:54.551Z,46.73
2023-05-08T10:43:55.816Z,47.06
2023-05-08T10:48:57.061Z,47.78
2023-05-08T10:53:58.982Z,48.00
2023-05-08T10:59:00.974Z,46.93
2023-05-08T11:04:02.544Z,45.48
2023-05-08T11:09:03.991Z,46.57
2023-05-08T11:14:05.311Z,49.15
2023-05-08T11:19:06.540Z,49.44
2023-05-08T11:24:07.791Z,48.70
2023-05-08T11:29:10.417Z,49.81
2023-05-08T11:34:11.687Z,48.02
2023-05-08T11:39:12.931Z,49.61
2023-05-08T11:44:15.003Z,49.75
2023-05-08T11:49:23.793Z,50.24
2023-05-08T11:54:27.607Z,51.48
2023-05-08T11:59:28.928Z,50.65
2023-05-08T12:04:30.341Z,49.42
2023-05-08T12:09:31.637Z,50.04
2023-05-08T12:14:32.973Z,50.95
2023-05-08T12:19:34.232Z,49.54
2023-05-08T12:24:35.511Z,49.38
2023-05-08T12:29:37.600Z,49.33
2023-05-08T12:34:38.852Z,49.76
2023-05-08T12:39:40.464Z,47.57
2023-05-08T12:44:41.740Z,49.25
2023-05-08T12:49:43.025Z,50.73
2023-05-08T12:54:44.249Z,53.56
2023-05-08T12:59:45.903Z,52.86
2023-05-08T13:04:47.260Z,51.14
2023-05-08T13:09:48.563Z,47.89
2023-05-08T13:14:49.777Z,48.11
2023-05-08T13:19:51.022Z,47.86
2023-05-08T13:24:52.320Z,47.87
2023-05-08T13:29:53.595Z,47.27
2023-05-08T13:34:57.654Z,47.57
2023-05-08T13:40:00.857Z,46.04
2023-05-08T13:45:02.156Z,45.63
2023-05-08T13:50:03.429Z,48.13
2023-05-08T13:55:04.734Z,45.40
2023-05-08T14:00:06.192Z,45.47
2023-05-08T14:05:08.773Z,45.54
2023-05-08T14:10:10.042Z,46.82
2023-05-08T14:15:12.081Z,46.05
2023-05-08T14:20:13.796Z,46.06
2023-05-08T14:25:15.282Z,47.78
2023-05-08T14:30:16.631Z,47.65
2023-05-08T14:35:17.890Z,47.85
2023-05-08T14:40:19.137Z,45.54
2023-05-08T14:45:20.487Z,46.10
2023-05-08T14:50:23.958Z,45.77
2023-05-08T14:55:25.320Z,46.16
2023-05-08T15:00:26.840Z,46.29
2023-05-08T15:05:28.123Z,46.52
2023-05-08T15:10:29.567Z,46.14
2023-05-08T15:15:30.840Z,44.85
2023-05-08T15:20:32.065Z,45.49
2023-05-08T15:25:33.345Z,46.26
2023-05-08T15:30:34.610Z,46.41
2023-05-08T15:35:35.888Z,46.03
2023-05-08T15:40:37.106Z,46.41
2023-05-08T15:45:38.366Z,45.91
2023-05-08T15:50:40.725Z,46.54
2023-05-08T15:55:42.295Z,46.66
2023-05-08T16:00:45.515Z,46.62
2023-05-08T16:05:46.996Z,47.06
2023-05-08T16:10:48.638Z,46.47
2023-05-08T16:15:49.887Z,47.90
2023-05-08T16:20:51.109Z,46.95
2023-05-08T16:25:52.319Z,48.38
2023-05-08T16:30:53.553Z,46.59
2023-05-08T16:35:54.791Z,47.28
2023-05-08T16:40:56.087Z,48.06
2023-05-08T16:45:59.144Z,46.70
2023-05-08T16:51:00.704Z,46.81
2023-05-08T16:56:01.925Z,48.00
2023-05-08T17:01:03.177Z,46.09
2023-05-08T17:06:04.428Z,47.76
2023-05-08T17:11:05.640Z,47.09
2023-05-08T17:16:06.954Z,47.36
2023-05-08T17:21:08.279Z,47.74
2023-05-08T17:26:09.524Z,46.56
2023-05-08T17:31:10.892Z,47.48
2023-05-08T17:36:12.215Z,47.18
2023-05-08T17:41:13.496Z,47.46
2023-05-08T17:46:14.899Z,46.65
2023-05-08T17:51:16.171Z,47.85
2023-05-08T17:56:20.676Z,49.51
2023-05-08T18:01:21.929Z,48.05
2023-05-08T18:06:23.224Z,47.24
2023-05-08T18:11:24.443Z,47.78
2023-05-08T18:16:25.785Z,48.11
2023-05-08T18:21:28.679Z,49.88
2023-05-08T18:26:29.963Z,49.66
2023-05-08T18:31:31.303Z,50.70
2023-05-08T18:36:32.531Z,52.71
2023-05-08T18:41:33.809Z,52.25
2023-05-08T18:46:35.083Z,53.19
2023-05-08T18:51:36.333Z,54.88
2023-05-08T18:56:39.335Z,54.95
2023-05-08T19:01:40.718Z,56.39
2023-05-08T19:06:42.041Z,56.42
2023-05-08T19:11:43.294Z,57.30
2023-05-08T19:16:44.534Z,56.36
2023-05-08T19:21:45.861Z,56.64
2023-05-08T19:26:47.168Z,55.43
2023-05-08T19:31:48.512Z,55.30
2023-05-08T19:36:49.770Z,56.70
2023-05-08T19:41:51.036Z,58.10
2023-05-08T19:46:52.308Z,57.82
2023-05-08T19:51:53.589Z,58.27
2023-05-08T19:56:54.986Z,58.68
2023-05-08T20:01:56.316Z,57.19
2023-05-08T20:06:57.707Z,57.10
2023-05-08T20:11:58.988Z,56.45
2023-05-08T20:17:00.429Z,56.13
2023-05-08T20:22:01.726Z,55.09
2023-05-08T20:27:03.045Z,57.47
2023-05-08T20:32:04.364Z,57.80
2023-05-08T20:37:05.636Z,58.17
2023-05-08T20:42:06.862Z,59.93
2023-05-08T20:47:08.069Z,59.41
2023-05-08T20:52:09.285Z,59.38
2023-05-08T20:57:12.863Z,59.69
2023-05-08T21:02:15.396Z,60.14
2023-05-08T21:07:16.641Z,61.08
2023-05-08T21:12:17.902Z,61.36
2023-05-08T21:17:19.148Z,62.34
2023-05-08T21:22:20.457Z,61.54
2023-05-08T21:27:21.758Z,61.45
2023-05-08T21:32:23.099Z,61.12
2023-05-08T21:37:24.409Z,60.71
2023-05-08T21:42:25.708Z,60.88
2023-05-08T21:47:30.183Z,60.93
2023-05-08T21:52:31.513Z,61.96
2023-05-08T21:57:32.792Z,61.34
2023-05-08T22:02:34.099Z,61.62
2023-05-08T22:07:35.413Z,61.96
2023-05-08T22:12:36.727Z,61.34
2023-05-08T22:17:38.247Z,61.11
2023-05-08T22:22:39.521Z,61.09
2023-05-08T22:27:40.821Z,62.29
2023-05-08T22:32:42.727Z,63.03
2023-05-08T22:37:44.108Z,63.65
2023-05-08T22:42:45.411Z,64.36
2023-05-08T22:47:46.816Z,64.43
2023-05-08T22:52:48.163Z,64.80
2023-05-08T22:57:49.429Z,64.27
2023-05-08T23:02:51.795Z,64.33
2023-05-08T23:07:53.008Z,64.31
2023-05-08T23:12:54.321Z,65.04
2023-05-08T23:17:55.659Z,64.68
2023-05-08T23:22:56.943Z,64.34
2023-05-08T23:27:58.434Z,64.82
2023-05-08T23:32:59.788Z,65.40
2023-05-08T23:38:01.152Z,65.58
2023-05-08T23:43:02.438Z,65.15
2023-05-08T23:48:03.689Z,65.65
2023-05-08T23:53:05.025Z,67.57
2023-05-08T23:58:06.245Z,67.12
